sensor_id;sensor_type;location;lat;lon;timestamp;pressure;altitude;pressure_sealevel;temperature;humidity
39793;BME280;26080;42.264;24.536;2023-05-08T00:01:58;99571.41;;;12.37;100.00
39793;BME280;26080;42.264;24.536;2023-05-08T00:04:23;99580.75;;;12.26;100.00
39793;BME280;26080;42.264;24.536;2023-05-08T00:06:49;99571.00;;;12.28;100.00
39793;BME280;26080;42.264;24.536;2023-05-08T00:09:15;99576.59;;;12.22;100.00
39793;BME280;26080;42.264;24.536;2023-05-08T00:11:41;99574.72;;;12.06;100.00
39793;BME280;26080;42.264;24.536;2023-05-08T00:14:06;99577.78;;;11.97;100.00
39793;BME280;26080;42.264;24.536;2023-05-08T00:16:32;99575.16;;;11.97;100.00
39793;BME280;26080;42.264;24.536;2023-05-08T00:18:57;99575.16;;;11.97;100.00
39793;BME280;26080;42.264;24.536;2023-05-08T00:21:23;99570.66;;;11.82;100.00
39793;BME280;26080;42.264;24.536;2023-05-08T00:23:49;99569.50;;;11.69;100.00
39793;BME280;26080;42.264;24.536;2023-05-08T00:26:14;99559.56;;;11.75;100.00
39793;BME280;26080;42.264;24.536;2023-05-08T00:28:40;99559.88;;;11.69;100.00
39793;BME280;26080;42.264;24.536;2023-05-08T00:31:05;99565.19;;;11.49;100.00
39793;BME280;26080;42.264;24.536;2023-05-08T00:33:31;99562.56;;;11.30;100.00
39793;BME280;26080;42.264;24.536;2023-05-08T00:36:00;99551.66;;;11.02;100.00
39793;BME280;26080;42.264;24.536;2023-05-08T00:38:26;99564.69;;;11.03;100.00
39793;BME280;26080;42.264;24.536;2023-05-08T00:40:51;99577.84;;;11.02;100.00
39793;BME280;26080;42.264;24.536;2023-05-08T00:43:17;99582.63;;;10.92;100.00
39793;BME280;26080;42.264;24.536;2023-05-08T00:45:44;99574.47;;;10.79;100.00
39793;BME280;26080;42.264;24.536;2023-05-08T00:48:10;99557.94;;;10.58;100.00
39793;BME280;26080;42.264;24.536;2023-05-08T00:50:35;99579.84;;;10.76;100.00
39793;BME280;26080;42.264;24.536;2023-05-08T00:53:01;99592.66;;;10.82;100.00
39793;BME280;26080;42.264;24.536;2023-05-08T00:55:29;99588.94;;;10.67;100.00
39793;BME280;26080;42.264;24.536;2023-05-08T00:57:54;99590.22;;;10.59;100.00
39793;BME280;26080;42.264;24.536;2023-05-08T01:00:20;99594.97;;;10.49;100.00
39793;BME280;26080;42.264;24.536;2023-05-08T01:02:47;99596.47;;;10.34;100.00
39793;BME280;26080;42.264;24.536;2023-05-08T01:05:13;99591.50;;;10.28;100.00
39793;BME280;26080;42.264;24.536;2023-05-08T01:07:38;99578.75;;;10.19;100.00
39793;BME280;26080;42.264;24.536;2023-05-08T01:10:05;99587.69;;;10.35;100.00
39793;BME280;26080;42.264;24.536;2023-05-08T01:12:48;99600.31;;;10.26;100.00
39793;BME280;26080;42.264;24.536;2023-05-08T01:15:33;99593.75;;;10.16;100.00
39793;BME280;26080;42.264;24.536;2023-05-08T01:18:30;99601.47;;;9.97;100.00
39793;BME280;26080;42.264;24.536;2023-05-08T01:32:25;99603.91;;;9.79;100.00
39793;BME280;26080;42.264;24.536;2023-05-08T01:37:40;99597.56;;;9.85;100.00
39793;BME280;26080;42.264;24.536;2023-05-08T01:40:31;99598.94;;;9.73;100.00
39793;BME280;26080;42.264;24.536;2023-05-08T01:45:38;99599.09;;;9.45;100.00
39793;BME280;26080;42.264;24.536;2023-05-08T01:48:08;99574.31;;;9.34;100.00
39793;BME280;26080;42.264;24.536;2023-05-08T01:50:46;99599.41;;;9.38;100.00
39793;BME280;26080;42.264;24.536;2023-05-08T01:53:21;99601.28;;;9.34;100.00
39793;BME280;26080;42.264;24.536;2023-05-08T01:55:50;99574.97;;;9.15;100.00
39793;BME280;26080;42.264;24.536;2023-05-08T01:58:18;99600.66;;;9.28;100.00
39793;BME280;26080;42.264;24.536;2023-05-08T02:00:44;99608.56;;;9.26;100.00
39793;BME280;26080;42.264;24.536;2023-05-08T02:03:12;99598.41;;;9.18;100.00
39793;BME280;26080;42.264;24.536;2023-05-08T02:05:39;99596.06;;;9.34;100.00
39793;BME280;26080;42.264;24.536;2023-05-08T02:08:07;99603.03;;;9.10;100.00
39793;BME280;26080;42.264;24.536;2023-05-08T02:10:34;99597.81;;;9.10;100.00
39793;BME280;26080;42.264;24.536;2023-05-08T02:13:01;99603.22;;;9.06;100.00
39793;BME280;26080;42.264;24.536;2023-05-08T02:15:29;99604.22;;;9.02;100.00
39793;BME280;26080;42.264;24.536;2023-05-08T02:18:01;99606.66;;;8.83;100.00
39793;BME280;26080;42.264;24.536;2023-05-08T02:20:30;99602.22;;;8.60;100.00
39793;BME280;26080;42.264;24.536;2023-05-08T02:22:56;99592.06;;;8.52;100.00
39793;BME280;26080;42.264;24.536;2023-05-08T02:25:22;99607.31;;;8.63;100.00
39793;BME280;26080;42.264;24.536;2023-05-08T02:27:52;99611.28;;;8.50;100.00
39793;BME280;26080;42.264;24.536;2023-05-08T02:30:21;99611.78;;;8.33;100.00
39793;BME280;26080;42.264;24.536;2023-05-08T02:32:49;99621.72;;;8.22;100.00
39793;BME280;26080;42.264;24.536;2023-05-08T02:35:18;99613.03;;;8.23;100.00
39793;BME280;26080;42.264;24.536;2023-05-08T02:37:51;99608.78;;;8.19;100.00
39793;BME280;26080;42.264;24.536;2023-05-08T02:40:19;99614.16;;;8.14;100.00
39793;BME280;26080;42.264;24.536;2023-05-08T02:42:46;99608.59;;;8.25;100.00
39793;BME280;26080;42.264;24.536;2023-05-08T02:45:12;99607.41;;;8.35;100.00
39793;BME280;26080;42.264;24.536;2023-05-08T02:47:45;99604.88;;;8.32;100.00
39793;BME280;26080;42.264;24.536;2023-05-08T02:50:28;99605.69;;;8.34;100.00
39793;BME280;26080;42.264;24.536;2023-05-08T02:53:08;99611.09;;;8.28;100.00
39793;BME280;26080;42.264;24.536;2023-05-08T02:55:47;99614.47;;;8.31;100.00
39793;BME280;26080;42.264;24.536;2023-05-08T03:01:07;99619.38;;;8.42;100.00
39793;BME280;26080;42.264;24.536;2023-05-08T03:03:41;99605.22;;;8.21;100.00
39793;BME280;26080;42.264;24.536;2023-05-08T03:06:18;99628.69;;;8.23;100.00
39793;BME280;26080;42.264;24.536;2023-05-08T03:08:47;99602.78;;;8.17;100.00
39793;BME280;26080;42.264;24.536;2023-05-08T03:11:17;99624.94;;;8.30;100.00
39793;BME280;26080;42.264;24.536;2023-05-08T03:13:45;99621.53;;;8.28;100.00
39793;BME280;26080;42.264;24.536;2023-05-08T03:16:17;99588.13;;;7.86;100.00
39793;BME280;26080;42.264;24.536;2023-05-08T03:18:58;99637.03;;;8.06;100.00
39793;BME280;26080;42.264;24.536;2023-05-08T03:21:27;99628.56;;;7.99;100.00
39793;BME280;26080;42.264;24.536;2023-05-08T03:23:54;99634.56;;;8.01;100.00
39793;BME280;26080;42.264;24.536;2023-05-08T03:26:22;99606.22;;;7.91;100.00
39793;BME280;26080;42.264;24.536;2023-05-08T03:28:49;99634.56;;;8.01;100.00
39793;BME280;26080;42.264;24.536;2023-05-08T03:31:18;99628.59;;;7.98;100.00
39793;BME280;26080;42.264;24.536;2023-05-08T03:33:49;99625.19;;;7.96;100.00
39793;BME280;26080;42.264;24.536;2023-05-08T03:36:15;99634.78;;;7.95;100.00
39793;BME280;26080;42.264;24.536;2023-05-08T03:38:41;99636.16;;;8.06;100.00
39793;BME280;26080;42.264;24.536;2023-05-08T03:41:06;99642.47;;;8.26;100.00
39793;BME280;26080;42.264;24.536;2023-05-08T03:43:32;99614.28;;;8.11;100.00
39793;BME280;26080;42.264;24.536;2023-05-08T03:46:00;99615.41;;;8.02;100.00
39793;BME280;26080;42.264;24.536;2023-05-08T03:48:27;99639.13;;;8.23;100.00
39793;BME280;26080;42.264;24.536;2023-05-08T03:50:54;99649.88;;;8.67;100.00
39793;BME280;26080;42.264;24.536;2023-05-08T03:53:20;99648.75;;;9.47;100.00
39793;BME280;26080;42.264;24.536;2023-05-08T03:55:46;99648.06;;;10.09;100.00
39793;BME280;26080;42.264;24.536;2023-05-08T03:58:22;99658.16;;;10.62;100.00
39793;BME280;26080;42.264;24.536;2023-05-08T04:01:24;99663.69;;;10.96;100.00
39793;BME280;26080;42.264;24.536;2023-05-08T04:04:06;99658.59;;;11.33;100.00
39793;BME280;26080;42.264;24.536;2023-05-08T04:06:40;99666.13;;;11.79;100.00
39793;BME280;26080;42.264;24.536;2023-05-08T04:09:19;99663.28;;;12.56;100.00
39793;BME280;26080;42.264;24.536;2023-05-08T04:12:04;99666.69;;;12.93;100.00
39793;BME280;26080;42.264;24.536;2023-05-08T04:14:52;99668.22;;;12.09;100.00
39793;BME280;26080;42.264;24.536;2023-05-08T04:20:00;99643.16;;;13.57;100.00
39793;BME280;26080;42.264;24.536;2023-05-08T04:22:28;99674.59;;;13.92;100.00
39793;BME280;26080;42.264;24.536;2023-05-08T04:25:01;99669.84;;;13.17;100.00
39793;BME280;26080;42.264;24.536;2023-05-08T04:27:29;99680.28;;;13.36;100.00
39793;BME280;26080;42.264;24.536;2023-05-08T04:29:58;99658.44;;;14.30;99.76
39793;BME280;26080;42.264;24.536;2023-05-08T04:32:25;99670.19;;;15.14;93.70
39793;BME280;26080;42.264;24.536;2023-05-08T04:34:51;99668.44;;;15.72;90.29
39793;BME280;26080;42.264;24.536;2023-05-08T04:37:35;99661.84;;;16.47;86.77
39793;BME280;26080;42.264;24.536;2023-05-08T04:40:01;99663.91;;;17.08;82.83
39793;BME280;26080;42.264;24.536;2023-05-08T04:42:28;99652.06;;;17.14;81.45
39793;BME280;26080;42.264;24.536;2023-05-08T04:44:54;99658.47;;;16.97;82.39
39793;BME280;26080;42.264;24.536;2023-05-08T04:47:20;99655.56;;;17.14;80.25
39793;BME280;26080;42.264;24.536;2023-05-08T04:49:45;99656.50;;;17.01;78.64
39793;BME280;26080;42.264;24.536;2023-05-08T04:52:11;99653.63;;;16.64;79.00
39793;BME280;26080;42.264;24.536;2023-05-08T04:54:36;99653.94;;;16.20;79.21
39793;BME280;26080;42.264;24.536;2023-05-08T04:57:02;99648.59;;;16.07;81.45
39793;BME280;26080;42.264;24.536;2023-05-08T04:59:28;99650.47;;;16.05;85.03
39793;BME280;26080;42.264;24.536;2023-05-08T05:01:54;99643.44;;;15.91;81.70
39793;BME280;26080;42.264;24.536;2023-05-08T05:04:20;99645.19;;;15.64;80.59
39793;BME280;26080;42.264;24.536;2023-05-08T05:06:46;99645.44;;;15.45;78.44
39793;BME280;26080;42.264;24.536;2023-05-08T05:09:11;99640.72;;;15.22;81.95
39793;BME280;26080;42.264;24.536;2023-05-08T05:11:37;99636.19;;;15.24;82.95
39793;BME280;26080;42.264;24.536;2023-05-08T05:14:03;99634.13;;;15.29;84.69
39793;BME280;26080;42.264;24.536;2023-05-08T05:16:28;99636.47;;;15.33;82.64
39793;BME280;26080;42.264;24.536;2023-05-08T05:18:54;99642.13;;;15.41;80.80
39793;BME280;26080;42.264;24.536;2023-05-08T05:21:19;99620.72;;;15.32;81.69
39793;BME280;26080;42.264;24.536;2023-05-08T05:23:45;99638.59;;;15.98;79.95
39793;BME280;26080;42.264;24.536;2023-05-08T05:26:10;99613.66;;;16.02;78.12
39793;BME280;26080;42.264;24.536;2023-05-08T05:28:36;99631.06;;;15.92;76.90
39793;BME280;26080;42.264;24.536;2023-05-08T05:31:01;99630.00;;;15.67;77.11
39793;BME280;26080;42.264;24.536;2023-05-08T05:33:27;99628.63;;;15.75;79.77
39793;BME280;26080;42.264;24.536;2023-05-08T05:35:53;99631.66;;;15.83;78.50
39793;BME280;26080;42.264;24.536;2023-05-08T05:38:18;99626.56;;;15.80;81.07
39793;BME280;26080;42.264;24.536;2023-05-08T05:40:44;99621.53;;;16.16;75.45
39793;BME280;26080;42.264;24.536;2023-05-08T05:43:09;99613.06;;;16.38;71.95
39793;BME280;26080;42.264;24.536;2023-05-08T05:45:35;99614.22;;;16.34;73.86
39793;BME280;26080;42.264;24.536;2023-05-08T05:48:01;99608.06;;;16.61;69.39
39793;BME280;26080;42.264;24.536;2023-05-08T05:50:27;99599.06;;;16.63;67.81
39793;BME280;26080;42.264;24.536;2023-05-08T05:52:53;99590.00;;;16.67;67.21
39793;BME280;26080;42.264;24.536;2023-05-08T05:55:19;99596.88;;;16.43;68.88
39793;BME280;26080;42.264;24.536;2023-05-08T05:57:44;99577.00;;;16.37;70.56
39793;BME280;26080;42.264;24.536;2023-05-08T06:00:10;99578.94;;;16.48;68.33
39793;BME280;26080;42.264;24.536;2023-05-08T06:02:36;99592.31;;;16.59;69.07
39793;BME280;26080;42.264;24.536;2023-05-08T06:05:02;99595.84;;;16.72;70.13
39793;BME280;26080;42.264;24.536;2023-05-08T06:07:28;99580.72;;;16.74;70.44
39793;BME280;26080;42.264;24.536;2023-05-08T06:09:53;99589.09;;;16.54;72.66
39793;BME280;26080;42.264;24.536;2023-05-08T06:12:20;99587.50;;;16.51;72.58
39793;BME280;26080;42.264;24.536;2023-05-08T06:14:46;99587.00;;;16.59;73.29
39793;BME280;26080;42.264;24.536;2023-05-08T06:17:11;99576.13;;;16.64;67.23
39793;BME280;26080;42.264;24.536;2023-05-08T06:19:37;99569.47;;;16.71;65.35
39793;BME280;26080;42.264;24.536;2023-05-08T06:22:02;99575.25;;;16.50;66.36
39793;BME280;26080;42.264;24.536;2023-05-08T06:24:28;99574.75;;;16.71;67.90
39793;BME280;26080;42.264;24.536;2023-05-08T06:26:53;99571.81;;;16.75;73.54
39793;BME280;26080;42.264;24.536;2023-05-08T06:29:19;99577.22;;;16.86;71.54
39793;BME280;26080;42.264;24.536;2023-05-08T06:31:45;99566.53;;;17.01;66.00
39793;BME280;26080;42.264;24.536;2023-05-08T06:34:10;99540.38;;;16.83;65.56
39793;BME280;26080;42.264;24.536;2023-05-08T06:36:36;99559.22;;;16.79;66.12
39793;BME280;26080;42.264;24.536;2023-05-08T06:39:04;99556.25;;;16.96;64.36
39793;BME280;26080;42.264;24.536;2023-05-08T06:41:31;99552.88;;;17.07;66.44
39793;BME280;26080;42.264;24.536;2023-05-08T06:43:56;99556.13;;;17.23;67.64
39793;BME280;26080;42.264;24.536;2023-05-08T06:46:21;99560.66;;;17.34;63.40
39793;BME280;26080;42.264;24.536;2023-05-08T06:48:47;99552.50;;;17.37;62.11
39793;BME280;26080;42.264;24.536;2023-05-08T06:51:13;99544.91;;;17.32;62.62
39793;BME280;26080;42.264;24.536;2023-05-08T06:53:38;99539.16;;;17.38;66.53
39793;BME280;26080;42.264;24.536;2023-05-08T06:56:03;99538.72;;;17.44;62.24
39793;BME280;26080;42.264;24.536;2023-05-08T06:58:30;99543.78;;;17.47;65.56
39793;BME280;26080;42.264;24.536;2023-05-08T07:00:58;99546.44;;;17.47;72.42
39793;BME280;26080;42.264;24.536;2023-05-08T07:03:24;99541.72;;;17.64;64.82
39793;BME280;26080;42.264;24.536;2023-05-08T07:05:49;99538.00;;;17.79;66.64
39793;BME280;26080;42.264;24.536;2023-05-08T07:08:15;99540.47;;;17.93;70.51
39793;BME280;26080;42.264;24.536;2023-05-08T07:10:40;99507.28;;;17.76;73.20
39793;BME280;26080;42.264;24.536;2023-05-08T07:13:05;99542.50;;;18.14;67.66
39793;BME280;26080;42.264;24.536;2023-05-08T07:15:31;99534.91;;;18.20;70.39
39793;BME280;26080;42.264;24.536;2023-05-08T07:17:56;99530.22;;;18.13;67.34
39793;BME280;26080;42.264;24.536;2023-05-08T07:20:22;99533.53;;;18.27;65.58
39793;BME280;26080;42.264;24.536;2023-05-08T07:22:48;99539.19;;;18.34;68.49
39793;BME280;26080;42.264;24.536;2023-05-08T07:25:14;99531.28;;;18.45;65.77
39793;BME280;26080;42.264;24.536;2023-05-08T07:27:40;99532.72;;;18.38;65.60
39793;BME280;26080;42.264;24.536;2023-05-08T07:30:06;99529.50;;;18.22;69.47
39793;BME280;26080;42.264;24.536;2023-05-08T07:32:32;99529.81;;;18.41;65.75
39793;BME280;26080;42.264;24.536;2023-05-08T07:34:57;99521.28;;;18.60;63.80
39793;BME280;26080;42.264;24.536;2023-05-08T07:37:23;99527.22;;;18.52;63.23
39793;BME280;26080;42.264;24.536;2023-05-08T07:39:48;99513.22;;;18.50;62.27
39793;BME280;26080;42.264;24.536;2023-05-08T07:42:14;99519.28;;;18.63;65.98
39793;BME280;26080;42.264;24.536;2023-05-08T07:44:39;99525.84;;;18.82;63.96
39793;BME280;26080;42.264;24.536;2023-05-08T07:47:05;99519.44;;;18.84;62.59
39793;BME280;26080;42.264;24.536;2023-05-08T07:49:30;99521.75;;;18.78;61.89
39793;BME280;26080;42.264;24.536;2023-05-08T07:51:55;99516.16;;;18.70;61.81
39793;BME280;26080;42.264;24.536;2023-05-08T07:54:21;99510.56;;;18.61;64.67
39793;BME280;26080;42.264;24.536;2023-05-08T07:56:46;99515.91;;;18.73;66.15
39793;BME280;26080;42.264;24.536;2023-05-08T07:59:14;99509.69;;;18.96;64.97
39793;BME280;26080;42.264;24.536;2023-05-08T08:01:40;99502.19;;;19.01;63.22
39793;BME280;26080;42.264;24.536;2023-05-08T08:04:11;99472.41;;;18.98;66.62
39793;BME280;26080;42.264;24.536;2023-05-08T08:06:36;99507.25;;;19.15;69.05
39793;BME280;26080;42.264;24.536;2023-05-08T08:09:01;99481.66;;;19.14;63.46
39793;BME280;26080;42.264;24.536;2023-05-08T08:11:27;99496.81;;;19.57;65.65
39793;BME280;26080;42.264;24.536;2023-05-08T08:13:53;99502.09;;;19.79;65.79
39793;BME280;26080;42.264;24.536;2023-05-08T08:16:21;99499.59;;;19.99;64.70
39793;BME280;26080;42.264;24.536;2023-05-08T08:18:46;99502.97;;;20.01;60.93
39793;BME280;26080;42.264;24.536;2023-05-08T08:21:12;99493.91;;;20.03;60.15
39793;BME280;26080;42.264;24.536;2023-05-08T08:23:37;99483.94;;;20.17;62.51
39793;BME280;26080;42.264;24.536;2023-05-08T08:26:03;99488.38;;;20.48;61.50
39793;BME280;26080;42.264;24.536;2023-05-08T08:28:28;99478.56;;;20.49;59.89
39793;BME280;26080;42.264;24.536;2023-05-08T08:30:54;99487.69;;;20.56;61.97
39793;BME280;26080;42.264;24.536;2023-05-08T08:33:19;99462.88;;;20.76;60.17
39793;BME280;26080;42.264;24.536;2023-05-08T08:35:47;99471.31;;;20.81;59.64
39793;BME280;26080;42.264;24.536;2023-05-08T08:38:13;99478.13;;;21.05;61.56
39793;BME280;26080;42.264;24.536;2023-05-08T08:40:41;99475.78;;;20.81;57.76
39793;BME280;26080;42.264;24.536;2023-05-08T08:43:10;99466.81;;;20.72;58.15
39793;BME280;26080;42.264;24.536;2023-05-08T08:45:36;99465.34;;;20.68;62.88
39793;BME280;26080;42.264;24.536;2023-05-08T08:48:02;99448.03;;;20.74;60.38
39793;BME280;26080;42.264;24.536;2023-05-08T08:50:30;99453.03;;;20.97;62.22
39793;BME280;26080;42.264;24.536;2023-05-08T08:53:18;99462.25;;;20.93;60.76
39793;BME280;26080;42.264;24.536;2023-05-08T08:55:49;99460.59;;;20.62;60.25
39793;BME280;26080;42.264;24.536;2023-05-08T09:00:50;99451.69;;;20.82;57.98
39793;BME280;26080;42.264;24.536;2023-05-08T09:03:18;99454.72;;;20.68;59.38
39793;BME280;26080;42.264;24.536;2023-05-08T09:05:45;99455.56;;;20.68;59.18
39793;BME280;26080;42.264;24.536;2023-05-08T09:08:13;99425.56;;;20.57;59.48
39793;BME280;26080;42.264;24.536;2023-05-08T09:10:39;99438.50;;;20.71;59.59
39793;BME280;26080;42.264;24.536;2023-05-08T09:13:05;99440.53;;;20.88;57.64
39793;BME280;26080;42.264;24.536;2023-05-08T09:15:31;99428.34;;;20.95;58.46
39793;BME280;26080;42.264;24.536;2023-05-08T09:17:57;99424.88;;;21.05;59.58
39793;BME280;26080;42.264;24.536;2023-05-08T09:20:23;99423.72;;;20.88;58.33
39793;BME280;26080;42.264;24.536;2023-05-08T09:22:50;99424.28;;;20.91;62.69
39793;BME280;26080;42.264;24.536;2023-05-08T09:25:15;99412.56;;;21.04;59.10
39793;BME280;26080;42.264;24.536;2023-05-08T09:27:43;99412.88;;;21.20;59.08
39793;BME280;26080;42.264;24.536;2023-05-08T09:30:10;99409.31;;;21.10;57.33
39793;BME280;26080;42.264;24.536;2023-05-08T09:32:39;99400.47;;;20.90;59.26
39793;BME280;26080;42.264;24.536;2023-05-08T09:35:06;99400.63;;;20.58;59.00
39793;BME280;26080;42.264;24.536;2023-05-08T09:37:32;99372.88;;;20.51;59.88
39793;BME280;26080;42.264;24.536;2023-05-08T09:40:17;99383.34;;;20.83;63.92
39793;BME280;26080;42.264;24.536;2023-05-08T09:42:43;99382.84;;;20.98;60.88
39793;BME280;26080;42.264;24.536;2023-05-08T09:45:09;99381.16;;;20.97;60.10
39793;BME280;26080;42.264;24.536;2023-05-08T09:47:35;99373.88;;;20.99;61.93
39793;BME280;26080;42.264;24.536;2023-05-08T09:50:08;99368.47;;;20.70;60.57
39793;BME280;26080;42.264;24.536;2023-05-08T09:52:36;99377.63;;;20.87;64.00
39793;BME280;26080;42.264;24.536;2023-05-08T09:55:06;99373.00;;;20.89;61.06
39793;BME280;26080;42.264;24.536;2023-05-08T09:57:37;99353.69;;;21.07;65.12
39793;BME280;26080;42.264;24.536;2023-05-08T10:00:08;99370.88;;;21.52;64.69
39793;BME280;26080;42.264;24.536;2023-05-08T10:02:36;99362.31;;;21.58;66.13
39793;BME280;26080;42.264;24.536;2023-05-08T10:05:02;99367.50;;;21.60;64.71
39793;BME280;26080;42.264;24.536;2023-05-08T10:07:33;99351.81;;;21.67;62.84
39793;BME280;26080;42.264;24.536;2023-05-08T10:10:05;99356.41;;;21.84;60.85
39793;BME280;26080;42.264;24.536;2023-05-08T10:12:31;99348.69;;;21.81;60.08
39793;BME280;26080;42.264;24.536;2023-05-08T10:14:57;99353.16;;;21.90;61.97
39793;BME280;26080;42.264;24.536;2023-05-08T10:17:34;99340.50;;;22.02;60.73
39793;BME280;26080;42.264;24.536;2023-05-08T10:20:05;99338.53;;;22.13;61.11
39793;BME280;26080;42.264;24.536;2023-05-08T10:22:35;99339.97;;;21.98;58.67
39793;BME280;26080;42.264;24.536;2023-05-08T10:25:02;99333.81;;;21.88;60.30
39793;BME280;26080;42.264;24.536;2023-05-08T10:27:40;99319.63;;;21.97;65.37
39793;BME280;26080;42.264;24.536;2023-05-08T10:30:07;99336.00;;;22.22;59.76
39793;BME280;26080;42.264;24.536;2023-05-08T10:32:37;99330.75;;;22.30;59.62
39793;BME280;26080;42.264;24.536;2023-05-08T10:35:08;99332.59;;;22.29;60.25
39793;BME280;26080;42.264;24.536;2023-05-08T10:37:35;99347.09;;;22.54;65.33
39793;BME280;26080;42.264;24.536;2023-05-08T10:40:02;99342.72;;;22.63;60.60
39793;BME280;26080;42.264;24.536;2023-05-08T10:42:28;99343.00;;;22.87;65.50
39793;BME280;26080;42.264;24.536;2023-05-08T10:44:54;99326.78;;;22.98;57.53
39793;BME280;26080;42.264;24.536;2023-05-08T10:52:46;99320.69;;;23.06;55.36
39793;BME280;26080;42.264;24.536;2023-05-08T10:55:21;99282.53;;;23.31;57.72
39793;BME280;26080;42.264;24.536;2023-05-08T11:03:25;99316.88;;;23.62;54.01
39793;BME280;26080;42.264;24.536;2023-05-08T11:05:51;99306.03;;;23.63;53.40
39793;BME280;26080;42.264;24.536;2023-05-08T11:08:25;99301.16;;;23.59;54.83
39793;BME280;26080;42.264;24.536;2023-05-08T11:15:52;99303.84;;;23.59;54.22
39793;BME280;26080;42.264;24.536;2023-05-08T11:18:18;99302.16;;;23.58;57.11
39793;BME280;26080;42.264;24.536;2023-05-08T11:21:05;99294.69;;;23.87;53.00
39793;BME280;26080;42.264;24.536;2023-05-08T11:23:38;99285.53;;;23.98;52.56
39793;BME280;26080;42.264;24.536;2023-05-08T11:26:13;99284.41;;;24.01;53.84
39793;BME280;26080;42.264;24.536;2023-05-08T11:28:54;99275.38;;;24.02;52.42
39793;BME280;26080;42.264;24.536;2023-05-08T11:31:21;99279.56;;;24.04;52.36
39793;BME280;26080;42.264;24.536;2023-05-08T11:33:46;99280.56;;;24.03;53.90
39793;BME280;26080;42.264;24.536;2023-05-08T11:36:16;99283.56;;;24.00;52.83
39793;BME280;26080;42.264;24.536;2023-05-08T11:39:07;99281.13;;;24.15;52.46
39793;BME280;26080;42.264;24.536;2023-05-08T11:41:33;99281.53;;;24.28;51.80
39793;BME280;26080;42.264;24.536;2023-05-08T11:46:41;99289.44;;;24.12;52.44
39793;BME280;26080;42.264;24.536;2023-05-08T11:49:14;99288.53;;;23.95;53.59
39793;BME280;26080;42.264;24.536;2023-05-08T11:51:47;99288.75;;;24.02;56.27
39793;BME280;26080;42.264;24.536;2023-05-08T11:54:18;99281.56;;;24.02;52.58
39793;BME280;26080;42.264;24.536;2023-05-08T11:56:48;99260.91;;;24.12;52.22
39793;BME280;26080;42.264;24.536;2023-05-08T11:59:14;99261.91;;;24.19;53.88
39793;BME280;26080;42.264;24.536;2023-05-08T12:01:40;99252.72;;;24.22;52.71
39793;BME280;26080;42.264;24.536;2023-05-08T12:04:08;99241.59;;;24.01;53.10
39793;BME280;26080;42.264;24.536;2023-05-08T12:06:35;99257.91;;;24.23;54.22
39793;BME280;26080;42.264;24.536;2023-05-08T12:09:17;99247.03;;;24.17;52.88
39793;BME280;26080;42.264;24.536;2023-05-08T12:11:44;99250.38;;;24.19;53.15
39793;BME280;26080;42.264;24.536;2023-05-08T12:14:10;99210.78;;;23.88;56.41
39793;BME280;26080;42.264;24.536;2023-05-08T12:16:37;99245.13;;;24.09;56.06
39793;BME280;26080;42.264;24.536;2023-05-08T12:19:04;99246.91;;;23.92;57.84
39793;BME280;26080;42.264;24.536;2023-05-08T12:21:33;99246.22;;;23.90;56.40
39793;BME280;26080;42.264;24.536;2023-05-08T12:23:59;99212.97;;;23.67;54.00
39793;BME280;26080;42.264;24.536;2023-05-08T12:26:24;99227.75;;;23.71;56.77
39793;BME280;26080;42.264;24.536;2023-05-08T12:28:54;99239.25;;;23.54;58.15
39793;BME280;26080;42.264;24.536;2023-05-08T12:31:20;99246.13;;;23.56;60.65
39793;BME280;26080;42.264;24.536;2023-05-08T12:33:47;99235.34;;;23.58;59.60
39793;BME280;26080;42.264;24.536;2023-05-08T12:36:12;99217.00;;;23.45;56.96
39793;BME280;26080;42.264;24.536;2023-05-08T12:38:38;99234.69;;;23.64;56.73
39793;BME280;26080;42.264;24.536;2023-05-08T12:41:04;99209.69;;;23.55;56.50
39793;BME280;26080;42.264;24.536;2023-05-08T12:43:35;99220.00;;;23.68;56.14
39793;BME280;26080;42.264;24.536;2023-05-08T12:46:02;99221.50;;;23.62;56.85
39793;BME280;26080;42.264;24.536;2023-05-08T12:48:29;99215.31;;;23.62;60.48
39793;BME280;26080;42.264;24.536;2023-05-08T12:51:00;99211.41;;;23.82;61.15
39793;BME280;26080;42.264;24.536;2023-05-08T12:53:29;99216.69;;;24.00;58.53
39793;BME280;26080;42.264;24.536;2023-05-08T12:55:56;99172.44;;;23.80;58.62
39793;BME280;26080;42.264;24.536;2023-05-08T12:58:26;99211.75;;;24.21;57.72
39793;BME280;26080;42.264;24.536;2023-05-08T13:00:52;99208.53;;;24.10;55.91
39793;BME280;26080;42.264;24.536;2023-05-08T13:03:26;99208.06;;;24.22;61.21
39793;BME280;26080;42.264;24.536;2023-05-08T13:05:53;99185.59;;;24.41;60.12
39793;BME280;26080;42.264;24.536;2023-05-08T13:08:19;99195.84;;;24.78;59.22
39793;BME280;26080;42.264;24.536;2023-05-08T13:10:55;99161.56;;;24.82;58.29
39793;BME280;26080;42.264;24.536;2023-05-08T13:13:22;99183.94;;;24.65;57.41
39793;BME280;26080;42.264;24.536;2023-05-08T13:15:50;99184.97;;;24.56;58.43
39793;BME280;26080;42.264;24.536;2023-05-08T13:18:16;99176.91;;;24.47;58.46
39793;BME280;26080;42.264;24.536;2023-05-08T13:20:42;99180.91;;;24.43;57.36
39793;BME280;26080;42.264;24.536;2023-05-08T13:23:08;99167.34;;;24.37;64.09
39793;BME280;26080;42.264;24.536;2023-05-08T13:25:35;99187.63;;;24.64;58.80
39793;BME280;26080;42.264;24.536;2023-05-08T13:28:01;99184.31;;;24.70;60.62
39793;BME280;26080;42.264;24.536;2023-05-08T13:30:27;99179.25;;;24.67;59.13
39793;BME280;26080;42.264;24.536;2023-05-08T13:32:52;99192.19;;;24.21;60.89
39793;BME280;26080;42.264;24.536;2023-05-08T13:35:18;99185.44;;;24.09;62.45
39793;BME280;26080;42.264;24.536;2023-05-08T13:37:45;99181.81;;;23.84;62.41